createdAt,value
2022-09-06T00:00:28.833Z,72.99
2022-09-06T00:02:56.528Z,73.34
2022-09-06T00:05:24.524Z,73.18
2022-09-06T00:07:52.361Z,73.13
2022-09-06T00:10:21.963Z,72.95
2022-09-06T00:12:49.675Z,72.87
2022-09-06T00:15:17.460Z,73.52
2022-09-06T00:17:47.520Z,73.75
2022-09-06T00:20:15.444Z,73.45
2022-09-06T00:22:42.927Z,72.79
2022-09-06T00:25:11.155Z,73.13
2022-09-06T00:27:38.839Z,73.31
2022-09-06T00:30:07.443Z,72.54
2022-09-06T00:32:35.057Z,72.92
2022-09-06T00:35:02.669Z,73.25
2022-09-06T00:37:30.208Z,73.27
2022-09-06T00:39:58.003Z,72.89
2022-09-06T00:42:25.957Z,72.96
2022-09-06T00:44:55.057Z,73.10
2022-09-06T00:47:23.051Z,73.15
2022-09-06T00:49:53.864Z,72.72
2022-09-06T00:52:22.637Z,73.15
2022-09-06T00:54:51.549Z,72.98
2022-09-06T00:57:19.869Z,72.54
2022-09-06T00:59:48.600Z,72.93
2022-09-06T01:02:16.722Z,72.70
2022-09-06T01:04:48.624Z,72.46
2022-09-06T01:07:26.588Z,72.50
2022-09-06T01:10:26.380Z,72.63
2022-09-06T01:13:20.133Z,72.71
2022-09-06T01:15:59.732Z,72.07
2022-09-06T01:19:00.025Z,72.81
2022-09-06T01:21:55.186Z,72.50
2022-09-06T01:24:49.907Z,72.05
2022-09-06T01:27:48.422Z,72.48
2022-09-06T01:30:19.935Z,72.17
2022-09-06T01:33:02.309Z,71.86
2022-09-06T01:35:41.279Z,72.43
2022-09-06T01:38:09.851Z,72.64
2022-09-06T01:40:37.457Z,72.95
2022-09-06T01:43:12.119Z,72.70
2022-09-06T01:46:10.512Z,72.72
2022-09-06T01:49:16.587Z,72.31
2022-09-06T01:52:23.798Z,72.47
2022-09-06T01:55:09.047Z,72.74
2022-09-06T01:57:56.878Z,72.95
2022-09-06T02:00:25.983Z,72.90
2022-09-06T02:02:58.019Z,72.55
2022-09-06T02:05:35.260Z,72.42
2022-09-06T02:08:10.425Z,72.74
2022-09-06T02:11:02.126Z,73.03
2022-09-06T02:13:36.541Z,73.70
2022-09-06T02:16:06.779Z,73.80
2022-09-06T02:18:44.983Z,73.36
2022-09-06T02:21:17.356Z,73.40
2022-09-06T02:23:47.284Z,73.37
2022-09-06T02:26:20.717Z,73.12
2022-09-06T02:28:49.069Z,73.17
2022-09-06T02:31:19.844Z,73.16
2022-09-06T02:33:49.747Z,72.67
2022-09-06T02:36:24.941Z,72.86
2022-09-06T02:39:01.467Z,72.55
2022-09-06T02:41:31.557Z,72.91
2022-09-06T02:43:59.667Z,72.55
2022-09-06T02:46:27.572Z,73.16
2022-09-06T02:48:55.559Z,73.38
2022-09-06T02:51:23.504Z,73.60
2022-09-06T02:53:51.378Z,73.49
2022-09-06T02:56:19.041Z,73.27
2022-09-06T02:58:46.874Z,72.68
2022-09-06T03:01:14.702Z,72.89
2022-09-06T03:03:43.105Z,72.84
2022-09-06T03:06:11.052Z,72.71
2022-09-06T03:08:42.124Z,72.63
2022-09-06T03:11:10.358Z,72.50
2022-09-06T03:13:38.121Z,72.72
2022-09-06T03:16:06.086Z,72.82
2022-09-06T03:18:34.198Z,72.10
2022-09-06T03:21:02.649Z,71.94
2022-09-06T03:23:30.761Z,72.33
2022-09-06T03:25:59.201Z,71.76
2022-09-06T03:28:28.733Z,71.72
2022-09-06T03:30:56.710Z,71.35
2022-09-06T03:33:24.918Z,71.49
2022-09-06T03:35:55.875Z,71.74
2022-09-06T03:38:25.640Z,71.68
2022-09-06T03:40:54.319Z,71.68
2022-09-06T03:43:23.801Z,72.02
2022-09-06T03:45:54.778Z,72.10
2022-09-06T03:48:24.794Z,71.39
2022-09-06T03:50:55.920Z,71.65
2022-09-06T03:53:27.324Z,72.01
2022-09-06T03:55:59.711Z,72.25
2022-09-06T03:58:33.204Z,71.69
2022-09-06T04:01:11.994Z,71.61
2022-09-06T04:03:40.576Z,71.88
2022-09-06T04:06:09.504Z,71.93
2022-09-06T04:08:37.785Z,71.90
2022-09-06T04:11:06.868Z,72.32
2022-09-06T04:13:35.770Z,72.14
2022-09-06T04:16:04.801Z,72.12
2022-09-06T04:18:37.137Z,71.97
2022-09-06T04:21:06.058Z,72.25
2022-09-06T04:23:37.668Z,72.47
2022-09-06T04:26:07.145Z,72.19
2022-09-06T04:28:34.831Z,72.54
2022-09-06T04:31:05.172Z,72.84
2022-09-06T04:33:34.907Z,72.08
2022-09-06T04:36:04.907Z,71.87
2022-09-06T04:38:37.488Z,71.86
2022-09-06T04:41:06.514Z,71.53
2022-09-06T04:43:34.285Z,71.71
2022-09-06T04:46:25.422Z,71.71
2022-09-06T04:48:54.717Z,71.66
2022-09-06T04:51:23.692Z,71.90
2022-09-06T04:53:52.690Z,71.97
2022-09-06T04:56:22.807Z,71.80
2022-09-06T04:58:51.531Z,72.09
2022-09-06T05:01:19.385Z,71.67
2022-09-06T05:03:56.777Z,71.63
2022-09-06T05:06:25.922Z,71.43
2022-09-06T05:08:54.600Z,72.29
2022-09-06T05:11:23.536Z,72.05
2022-09-06T05:13:51.048Z,72.13
2022-09-06T05:16:18.666Z,72.15
2022-09-06T05:18:46.414Z,72.34
2022-09-06T05:21:14.549Z,72.22
2022-09-06T05:23:43.134Z,72.29
2022-09-06T05:26:10.877Z,72.17
2022-09-06T05:28:38.261Z,71.89
2022-09-06T05:31:28.759Z,71.99
2022-09-06T05:33:58.076Z,71.96
2022-09-06T05:36:27.483Z,71.64
2022-09-06T05:38:56.801Z,71.71
2022-09-06T05:41:25.445Z,71.84
2022-09-06T05:43:54.264Z,71.21
2022-09-06T05:46:22.319Z,71.20
2022-09-06T05:48:54.712Z,71.19
2022-09-06T05:51:22.301Z,71.36
2022-09-06T05:53:50.431Z,71.40
2022-09-06T05:56:19.416Z,71.05
2022-09-06T05:58:47.108Z,71.02
2022-09-06T06:01:16.515Z,70.87
2022-09-06T06:03:55.008Z,70.98
2022-09-06T06:06:24.219Z,71.05
2022-09-06T06:08:51.884Z,70.96
2022-09-06T06:11:20.384Z,71.21
2022-09-06T06:13:49.264Z,71.12
2022-09-06T06:16:18.924Z,70.88
2022-09-06T06:18:51.763Z,70.88
2022-09-06T06:21:21.700Z,71.17
2022-09-06T06:24:07.658Z,70.95
2022-09-06T06:26:36.885Z,71.27
2022-09-06T06:29:08.393Z,71.48
2022-09-06T06:31:38.167Z,71.65
2022-09-06T06:34:06.787Z,71.47
2022-09-06T06:36:36.464Z,71.04
2022-09-06T06:39:07.007Z,70.93
2022-09-06T06:41:34.925Z,70.94
2022-09-06T06:44:04.062Z,70.60
2022-09-06T06:46:34.447Z,70.78
2022-09-06T06:49:02.378Z,71.07
2022-09-06T06:51:32.405Z,70.99
2022-09-06T06:54:00.365Z,71.16
2022-09-06T06:56:29.975Z,70.84
2022-09-06T06:59:00.843Z,70.79
2022-09-06T07:01:31.637Z,70.84
2022-09-06T07:04:00.337Z,71.31
2022-09-06T07:09:21.272Z,71.83
2022-09-06T07:11:49.436Z,72.04
2022-09-06T07:14:17.985Z,72.12
2022-09-06T07:16:46.214Z,72.42
2022-09-06T07:22:05.796Z,72.46
2022-09-06T07:24:33.827Z,72.32
2022-09-06T07:29:50.086Z,71.75
2022-09-06T07:32:18.055Z,71.45
2022-09-06T07:34:48.937Z,71.41
2022-09-06T07:37:16.819Z,70.98
2022-09-06T07:39:44.578Z,70.63
2022-09-06T07:42:12.349Z,70.69
2022-09-06T07:44:47.836Z,70.42
2022-09-06T07:53:11.982Z,69.52
2022-09-06T07:55:41.786Z,68.77
2022-09-06T07:58:09.469Z,68.65
2022-09-06T08:00:38.813Z,67.95
2022-09-06T08:03:06.184Z,67.68
2022-09-06T08:11:09.165Z,66.83
2022-09-06T08:13:37.639Z,66.78
2022-09-06T08:16:08.388Z,67.22
2022-09-06T08:18:37.341Z,67.51
2022-09-06T08:21:17.350Z,67.73
2022-09-06T08:23:54.261Z,67.03
2022-09-06T08:26:25.001Z,66.56
2022-09-06T08:29:00.664Z,66.34
2022-09-06T08:31:31.158Z,65.67
2022-09-06T08:34:00.548Z,65.71
2022-09-06T08:36:32.829Z,64.88
2022-09-06T08:39:03.130Z,65.06
2022-09-06T08:41:57.106Z,64.63
2022-09-06T08:47:21.065Z,64.92
2022-09-06T08:50:01.654Z,64.27
2022-09-06T08:52:45.385Z,63.69
2022-09-06T08:55:43.205Z,63.63
2022-09-06T08:58:33.965Z,63.44
2022-09-06T09:01:15.173Z,62.88
2022-09-06T09:03:45.465Z,62.35
2022-09-06T09:06:13.163Z,62.32
2022-09-06T09:09:04.031Z,62.16
2022-09-06T09:11:34.163Z,63.32
2022-09-06T09:14:21.049Z,63.84
2022-09-06T09:16:58.797Z,64.26
2022-09-06T09:19:26.127Z,63.94
2022-09-06T09:21:53.573Z,64.16
2022-09-06T09:24:26.171Z,64.01
2022-09-06T09:27:12.854Z,65.21
2022-09-06T09:32:46.127Z,65.11
2022-09-06T09:35:25.191Z,64.53
2022-09-06T09:38:11.993Z,64.39
2022-09-06T09:40:43.618Z,64.47
2022-09-06T09:43:17.116Z,64.44
2022-09-06T09:45:46.826Z,64.79
2022-09-06T09:48:29.843Z,65.00
2022-09-06T09:51:08.523Z,64.98
2022-09-06T09:53:54.099Z,64.73
2022-09-06T09:56:39.105Z,64.56
2022-09-06T09:59:21.074Z,63.84
2022-09-06T10:01:48.992Z,63.77
2022-09-06T10:07:21.436Z,63.90
2022-09-06T10:09:58.976Z,63.25
2022-09-06T10:12:32.667Z,62.22
2022-09-06T10:15:04.926Z,62.31
2022-09-06T10:17:35.947Z,61.84
2022-09-06T10:20:09.687Z,62.01
2022-09-06T10:22:49.358Z,61.70
2022-09-06T10:25:31.915Z,61.74
2022-09-06T10:28:13.657Z,61.82
2022-09-06T10:31:03.558Z,62.12
2022-09-06T10:33:53.377Z,61.87
2022-09-06T10:36:34.247Z,62.04
2022-09-06T10:39:31.973Z,61.98
2022-09-06T10:42:06.438Z,62.02
2022-09-06T10:44:36.749Z,62.31
2022-09-06T10:47:16.339Z,62.18
2022-09-06T10:49:46.936Z,62.36
2022-09-06T10:52:23.605Z,62.47
2022-09-06T10:54:53.007Z,62.77
2022-09-06T11:00:49.859Z,61.55
2022-09-06T11:06:15.698Z,61.44
2022-09-06T11:08:58.103Z,61.47
2022-09-06T11:11:50.997Z,61.21
2022-09-06T11:14:22.267Z,61.49
2022-09-06T11:16:58.176Z,61.93
2022-09-06T11:19:42.850Z,61.91
2022-09-06T11:22:45.543Z,61.76
2022-09-06T11:25:22.447Z,61.42
2022-09-06T11:28:00.678Z,61.19
2022-09-06T11:30:30.750Z,60.96
2022-09-06T11:33:25.947Z,60.60
2022-09-06T11:36:18.125Z,60.60
2022-09-06T11:38:56.511Z,60.41
2022-09-06T11:41:33.156Z,60.07
2022-09-06T11:44:01.558Z,60.11
2022-09-06T11:46:35.359Z,60.13
2022-09-06T11:49:34.708Z,59.83
2022-09-06T11:52:04.180Z,59.71
2022-09-06T11:54:50.128Z,59.10
2022-09-06T11:57:23.044Z,58.86
2022-09-06T12:00:04.929Z,59.06
2022-09-06T12:02:35.660Z,59.36
2022-09-06T12:05:04.957Z,58.75
2022-09-06T12:07:34.418Z,58.91
2022-09-06T12:10:23.274Z,59.43
2022-09-06T12:12:59.068Z,60.40
2022-09-06T12:15:30.006Z,60.56
2022-09-06T12:18:00.038Z,60.79
2022-09-06T12:20:49.733Z,61.63
2022-09-06T12:23:41.793Z,61.68
2022-09-06T12:26:11.320Z,61.60
2022-09-06T12:28:48.820Z,61.52
2022-09-06T12:31:51.064Z,61.51
2022-09-06T12:34:23.402Z,60.63
2022-09-06T12:36:59.522Z,61.62
2022-09-06T12:39:28.192Z,62.50
2022-09-06T12:42:06.999Z,62.15
2022-09-06T12:44:39.800Z,62.11
2022-09-06T12:47:29.471Z,61.75
2022-09-06T12:50:11.860Z,61.87
2022-09-06T12:52:50.539Z,61.19
2022-09-06T12:55:30.613Z,61.19
2022-09-06T12:58:08.251Z,61.57
2022-09-06T13:00:55.161Z,61.09
2022-09-06T13:03:37.290Z,60.98
2022-09-06T13:06:08.531Z,59.99
2022-09-06T13:08:52.497Z,59.59
2022-09-06T13:11:37.552Z,60.67
2022-09-06T13:14:30.725Z,60.77
2022-09-06T13:16:58.505Z,61.07
2022-09-06T13:19:36.113Z,60.55
2022-09-06T13:22:09.043Z,61.33
2022-09-06T13:24:37.289Z,61.12
2022-09-06T13:27:38.015Z,61.91
2022-09-06T13:30:10.972Z,61.50
2022-09-06T13:32:49.088Z,61.20
2022-09-06T13:35:25.190Z,60.82
2022-09-06T13:37:52.731Z,60.74
2022-09-06T13:41:06.961Z,61.17
2022-09-06T13:43:33.797Z,60.66
2022-09-06T13:46:09.538Z,60.38
2022-09-06T13:48:40.197Z,59.56
2022-09-06T13:51:08.860Z,60.19
2022-09-06T13:53:36.747Z,58.39
2022-09-06T13:56:09.144Z,58.07
2022-09-06T13:58:37.290Z,57.22
2022-09-06T14:01:10.412Z,57.42
2022-09-06T14:03:42.200Z,57.53
2022-09-06T14:06:11.722Z,56.02
2022-09-06T14:09:03.312Z,54.97
2022-09-06T14:11:28.083Z,54.95
2022-09-06T14:13:55.765Z,54.74
2022-09-06T14:16:23.765Z,54.50
2022-09-06T14:18:52.339Z,55.40
2022-09-06T14:21:22.162Z,54.69
2022-09-06T14:23:54.292Z,55.08
2022-09-06T14:26:23.429Z,55.01
2022-09-06T14:28:51.737Z,53.88
2022-09-06T14:31:22.253Z,53.45
2022-09-06T14:33:50.460Z,52.81
2022-09-06T14:36:26.267Z,52.40
2022-09-06T14:38:54.502Z,53.16
2022-09-06T14:41:22.577Z,53.90
2022-09-06T14:43:59.009Z,54.33
2022-09-06T14:46:28.910Z,53.58
2022-09-06T14:49:08.511Z,53.85
2022-09-06T14:51:38.401Z,54.64
2022-09-06T14:54:10.435Z,54.34
2022-09-06T14:56:40.194Z,55.24
2022-09-06T14:59:08.979Z,55.10
2022-09-06T15:01:38.499Z,55.02
2022-09-06T15:04:10.655Z,55.82
2022-09-06T15:06:41.893Z,56.20
2022-09-06T15:09:13.237Z,55.61
2022-09-06T15:11:49.619Z,55.89
2022-09-06T15:14:28.078Z,55.95
2022-09-06T15:16:59.160Z,55.87
2022-09-06T15:19:29.277Z,55.49
2022-09-06T15:21:57.718Z,55.92
2022-09-06T15:24:28.066Z,56.32
2022-09-06T15:26:55.944Z,56.38
2022-09-06T15:29:23.810Z,56.38
2022-09-06T15:31:53.997Z,56.93
2022-09-06T15:34:24.032Z,56.99
2022-09-06T15:36:53.250Z,57.16
2022-09-06T15:39:21.732Z,57.27
2022-09-06T15:41:50.751Z,57.42
2022-09-06T15:44:19.917Z,57.01
2022-09-06T15:46:54.902Z,57.40
2022-09-06T15:49:29.026Z,58.20
2022-09-06T15:51:59.092Z,58.37
2022-09-06T15:54:46.224Z,58.12
2022-09-06T15:57:16.666Z,57.94
2022-09-06T15:59:44.964Z,58.12
2022-09-06T16:02:13.241Z,57.74
2022-09-06T16:04:41.053Z,57.19
2022-09-06T16:07:09.942Z,57.00
2022-09-06T16:09:37.525Z,57.65
2022-09-06T16:12:05.289Z,57.49
2022-09-06T16:14:32.931Z,57.42
2022-09-06T16:17:00.797Z,57.75
2022-09-06T16:19:28.352Z,57.38
2022-09-06T16:21:56.728Z,57.81
2022-09-06T16:24:38.544Z,57.87
2022-09-06T16:27:13.536Z,57.25
2022-09-06T16:29:50.105Z,57.50
2022-09-06T16:32:21.557Z,57.24
2022-09-06T16:34:51.493Z,57.28
2022-09-06T16:37:19.031Z,56.44
2022-09-06T16:39:46.732Z,57.00
2022-09-06T16:42:15.192Z,56.52
2022-09-06T16:44:42.457Z,55.91
2022-09-06T16:47:13.573Z,56.54
2022-09-06T16:49:43.632Z,55.68
2022-09-06T16:52:10.993Z,55.83
2022-09-06T16:54:38.852Z,56.29
2022-09-06T16:57:07.730Z,55.97
2022-09-06T16:59:35.216Z,55.92
2022-09-06T17:02:02.847Z,56.31
2022-09-06T17:04:30.829Z,56.03
2022-09-06T17:06:58.352Z,56.31
2022-09-06T17:09:25.902Z,57.05
2022-09-06T17:11:53.388Z,56.64
2022-09-06T17:14:20.982Z,56.83
2022-09-06T17:17:07.583Z,56.96
2022-09-06T17:19:38.238Z,58.22
2022-09-06T17:22:06.484Z,58.46
2022-09-06T17:24:34.452Z,58.47
2022-09-06T17:27:01.943Z,58.44
2022-09-06T17:29:29.449Z,58.89
2022-09-06T17:31:57.736Z,58.93
2022-09-06T17:34:25.824Z,59.23
2022-09-06T17:36:53.296Z,59.71
2022-09-06T17:39:22.469Z,59.49
2022-09-06T17:41:54.025Z,59.39
2022-09-06T17:44:25.789Z,59.64
2022-09-06T17:47:12.081Z,59.72
2022-09-06T17:49:42.860Z,60.59
2022-09-06T17:52:11.535Z,60.71
2022-09-06T17:54:39.335Z,61.34
2022-09-06T17:57:06.711Z,61.41
2022-09-06T17:59:35.675Z,61.64
2022-09-06T18:02:04.700Z,62.03
2022-09-06T18:04:32.453Z,62.37
2022-09-06T18:07:00.266Z,62.60
2022-09-06T18:09:28.034Z,62.61
2022-09-06T18:11:55.542Z,62.62
2022-09-06T18:14:23.668Z,62.73
2022-09-06T18:16:52.687Z,62.93
2022-09-06T18:19:21.895Z,63.16
2022-09-06T18:21:52.311Z,63.15
2022-09-06T18:24:19.967Z,63.27
2022-09-06T18:26:47.593Z,63.33
2022-09-06T18:29:18.751Z,63.42
2022-09-06T18:31:46.455Z,63.56
2022-09-06T18:34:16.423Z,64.10
2022-09-06T18:36:44.502Z,64.17
2022-09-06T18:39:13.607Z,64.29
2022-09-06T18:42:02.193Z,64.40
2022-09-06T18:44:34.304Z,64.68
2022-09-06T18:47:04.958Z,64.69
2022-09-06T18:49:34.215Z,65.03
2022-09-06T18:52:04.633Z,64.58
2022-09-06T18:54:36.644Z,65.17
2022-09-06T18:57:05.116Z,65.18
2022-09-06T18:59:41.489Z,65.09
2022-09-06T19:02:10.531Z,65.10
2022-09-06T19:04:38.152Z,65.61
2022-09-06T19:07:06.323Z,65.40
2022-09-06T19:09:34.289Z,65.56
2022-09-06T19:12:04.081Z,65.89
2022-09-06T19:14:34.175Z,65.94
2022-09-06T19:17:02.507Z,65.74
2022-09-06T19:19:31.231Z,66.28
2022-09-06T19:21:59.459Z,66.10
2022-09-06T19:24:27.636Z,66.22
2022-09-06T19:26:56.019Z,66.07
2022-09-06T19:29:23.855Z,66.52
2022-09-06T19:31:52.748Z,66.52
2022-09-06T19:34:21.049Z,66.89
2022-09-06T19:36:50.576Z,67.11
2022-09-06T19:39:33.535Z,66.81
2022-09-06T19:42:04.660Z,66.94
2022-09-06T19:44:33.487Z,67.04
2022-09-06T19:47:01.831Z,66.67
2022-09-06T19:49:31.283Z,66.71
2022-09-06T19:51:59.456Z,66.91
2022-09-06T19:54:30.947Z,67.27
2022-09-06T19:57:07.592Z,67.15
2022-09-06T19:59:39.658Z,66.98
2022-09-06T20:02:14.508Z,66.93
2022-09-06T20:04:45.841Z,66.95
2022-09-06T20:07:13.459Z,66.95
2022-09-06T20:09:42.029Z,65.80
2022-09-06T20:12:10.147Z,66.53
2022-09-06T20:14:41.502Z,64.39
2022-09-06T20:17:32.238Z,63.91
2022-09-06T20:19:57.956Z,63.38
2022-09-06T20:22:26.417Z,62.88
2022-09-06T20:24:53.872Z,63.72
2022-09-06T20:27:24.576Z,63.42
2022-09-06T20:29:56.200Z,62.74
2022-09-06T20:32:25.676Z,63.20
2022-09-06T20:35:00.140Z,62.91
2022-09-06T20:37:40.771Z,62.49
2022-09-06T20:40:11.589Z,62.85
2022-09-06T20:42:42.628Z,62.61
2022-09-06T20:45:12.204Z,62.73
2022-09-06T20:47:46.338Z,62.54
2022-09-06T20:50:14.721Z,61.98
2022-09-06T20:52:42.203Z,61.40
2022-09-06T20:55:10.391Z,61.56
2022-09-06T20:57:38.615Z,61.09
2022-09-06T21:00:07.983Z,60.72
2022-09-06T21:02:40.812Z,61.43
2022-09-06T21:05:10.781Z,60.80
2022-09-06T21:07:38.472Z,61.15
2022-09-06T21:10:06.349Z,61.06
2022-09-06T21:12:36.392Z,60.91
2022-09-06T21:15:07.475Z,61.54
2022-09-06T21:17:45.149Z,61.07
2022-09-06T21:20:21.652Z,61.54
2022-09-06T21:22:50.671Z,61.46
2022-09-06T21:25:20.595Z,62.35
2022-09-06T21:27:50.685Z,62.77
2022-09-06T21:30:21.697Z,63.45
2022-09-06T21:32:49.960Z,63.31
2022-09-06T21:35:17.616Z,63.65
2022-09-06T21:37:45.821Z,64.22
2022-09-06T21:40:14.221Z,64.31
2022-09-06T21:42:45.640Z,64.48
2022-09-06T21:45:13.392Z,64.27
2022-09-06T21:47:42.810Z,64.31
2022-09-06T21:50:10.841Z,64.73
2022-09-06T21:52:40.833Z,64.83
2022-09-06T21:55:13.491Z,64.95
2022-09-06T21:57:43.533Z,65.40
2022-09-06T22:00:12.544Z,65.46
2022-09-06T22:02:40.619Z,66.64
2022-09-06T22:05:10.026Z,67.15
2022-09-06T22:07:38.021Z,67.10
2022-09-06T22:10:05.898Z,66.96
2022-09-06T22:12:34.467Z,67.28
2022-09-06T22:15:09.433Z,67.16
2022-09-06T22:17:46.462Z,66.83
2022-09-06T22:20:14.002Z,67.18
2022-09-06T22:22:41.878Z,67.49
2022-09-06T22:25:09.735Z,67.03
2022-09-06T22:27:37.682Z,67.12
2022-09-06T22:30:05.796Z,67.21
2022-09-06T22:32:33.580Z,67.57
2022-09-06T22:35:01.218Z,67.15
2022-09-06T22:37:28.856Z,67.34
2022-09-06T22:39:56.440Z,67.71
2022-09-06T22:42:26.900Z,67.37
2022-09-06T22:44:55.469Z,67.68
2022-09-06T22:47:23.686Z,67.63
2022-09-06T22:49:53.450Z,68.01
2022-09-06T22:52:23.278Z,67.86
2022-09-06T22:54:51.015Z,68.25
2022-09-06T22:57:21.383Z,68.21
2022-09-06T22:59:49.146Z,68.02
2022-09-06T23:02:16.691Z,68.29
2022-09-06T23:04:44.315Z,68.50
2022-09-06T23:07:12.730Z,68.73
2022-09-06T23:09:40.768Z,68.62
2022-09-06T23:12:08.479Z,68.48
2022-09-06T23:14:36.273Z,68.37
2022-09-06T23:17:04.697Z,68.96
2022-09-06T23:19:34.650Z,68.73
2022-09-06T23:22:03.265Z,68.87
2022-09-06T23:24:31.394Z,69.11
2022-09-06T23:27:02.709Z,68.51
2022-09-06T23:29:30.220Z,68.57
2022-09-06T23:31:57.781Z,68.89
2022-09-06T23:34:25.664Z,68.95
2022-09-06T23:36:54.409Z,69.30
2022-09-06T23:39:22.317Z,69.43
2022-09-06T23:41:49.760Z,69.75
2022-09-06T23:44:17.363Z,70.67
2022-09-06T23:46:45.484Z,70.47
2022-09-06T23:49:13.689Z,69.86
2022-09-06T23:51:41.544Z,70.05
2022-09-06T23:54:09.006Z,70.09
2022-09-06T23:56:36.983Z,70.16
2022-09-06T23:59:06.935Z,69.94
